Time;durP1;ratioP1;P1;durP2;ratioP2;P2;SDS_P1;SDS_P2;PMS_P1;PMS_P2;Temp;Humidity;BMP_temperature;BMP_pressure;BME280_temperature;BME280_humidity;BME280_pressure;Samples;Min_cycle;Max_cycle;Signal;HPM_P1;HPM_P2
2023/04/26 00:01:48;;;;;;;0.30;0.17;;;3.10;99.90;;;;;;5097044;28;20063;-90
2023/04/26 00:04:19;;;;;;;0.15;0.10;;;3.00;99.90;;;;;;5114310;28;20046;-90
2023/04/26 00:06:48;;;;;;;0.45;0.08;;;3.00;99.90;;;;;;5085944;27;20137;-90
2023/04/26 00:09:14;;;;;;;0.08;0.08;;;3.10;99.90;;;;;;5155232;27;20122;-90
2023/04/26 00:11:42;;;;;;;0.47;0.03;;;3.60;99.90;;;;;;5127309;27;20134;-90
2023/04/26 00:14:08;;;;;;;0.30;0.30;;;3.00;99.90;;;;;;5134631;27;20058;-90
2023/04/26 00:16:44;;;;;;;0.20;0.20;;;3.00;99.90;;;;;;5147496;27;20404;-90
2023/04/26 00:19:12;;;;;;;0.10;0.10;;;3.00;99.90;;;;;;5138803;27;20042;-90
2023/04/26 00:21:40;;;;;;;0.00;0.00;;;3.00;99.90;;;;;;5137351;27;20046;-90
2023/04/26 00:24:17;;;;;;;0.00;0.00;;;3.10;99.90;;;;;;5155018;27;20399;-90
2023/04/26 00:27:08;;;;;;;0.20;0.20;;;3.10;99.90;;;;;;5131813;27;20447;-91
2023/04/26 00:29:50;;;;;;;0.10;0.10;;;3.10;99.90;;;;;;5117727;27;20396;-90
2023/04/26 00:32:28;;;;;;;;;;;;;;;;;;;;;
2023/04/26 00:34:54;;;;;;;0.20;0.10;;;2.90;99.90;;;;;;5137242;27;20043;-90
2023/04/26 00:37:20;;;;;;;0.30;0.10;;;3.10;99.90;;;;;;5116486;27;20047;-95
2023/04/26 00:39:46;;;;;;;0.23;0.20;;;3.30;99.90;;;;;;5150468;27;20078;-91
2023/04/26 00:42:14;;;;;;;0.10;0.00;;;3.20;99.90;;;;;;5127955;27;20046;-91
2023/04/26 00:44:45;;;;;;;0.13;0.13;;;3.20;99.90;;;;;;5154434;27;20450;-90
2023/04/26 00:47:24;;;;;;;;;;;;;;;;;;;;;
2023/04/26 00:50:00;;;;;;;0.10;0.10;;;3.10;99.90;;;;;;5126089;27;20110;-90
2023/04/26 00:52:39;;;;;;;;;;;;;;;;;;;;;
2023/04/26 00:55:13;;;;;;;0.15;0.03;;;3.20;99.90;;;;;;5144900;27;20443;-90
2023/04/26 00:57:46;;;;;;;0.13;0.10;;;2.20;99.90;;;;;;5134751;27;20063;-90
2023/04/26 01:00:17;;;;;;;0.00;0.00;;;3.20;99.90;;;;;;5131287;27;20043;-91
2023/04/26 01:02:53;;;;;;;0.95;0.05;;;3.10;99.90;;;;;;5110101;27;20129;-90
2023/04/26 01:05:28;;;;;;;0.10;0.10;;;3.20;99.90;;;;;;5145836;27;20057;-90
2023/04/26 01:08:15;;;;;;;;;;;;;;;;;;;;;
2023/04/26 01:10:48;;;;;;;0.22;0.10;;;4.10;99.90;;;;;;5140113;27;20083;-90
2023/04/26 01:13:20;;;;;;;0.20;0.20;;;3.20;99.90;;;;;;5154265;27;20471;-90
2023/04/26 01:16:09;;;;;;;0.22;0.22;;;3.00;99.90;;;;;;5140620;27;20044;-90
2023/04/26 01:18:51;;;;;;;0.13;0.13;;;3.00;99.90;;;;;;5112735;28;20489;-90
2023/04/26 01:21:43;;;;;;;0.55;0.28;;;3.20;99.90;;;;;;5096082;28;20054;-91
2023/04/26 01:24:11;;;;;;;0.38;0.05;;;2.90;99.90;;;;;;5087176;28;20059;-90
2023/04/26 01:26:44;;;;;;;0.00;0.00;;;2.90;99.90;;;;;;5095721;28;20151;-91
2023/04/26 01:29:25;;;;;;;0.10;0.10;;;1.90;99.90;;;;;;5109512;27;20138;-90
2023/04/26 01:31:54;;;;;;;0.13;0.13;;;2.90;99.90;;;;;;5100057;27;20035;-91
2023/04/26 01:34:20;;;;;;;0.13;0.13;;;2.90;99.90;;;;;;5108762;27;20076;-90
2023/04/26 01:36:59;;;;;;;0.20;0.10;;;2.40;99.90;;;;;;5119000;27;20104;-90
2023/04/26 01:39:30;;;;;;;0.28;0.10;;;2.90;99.90;;;;;;5120192;27;20043;-90
2023/04/26 01:41:58;;;;;;;0.10;0.10;;;2.80;99.90;;;;;;5153877;27;20043;-90
2023/04/26 01:44:26;;;;;;;0.20;0.10;;;2.80;99.90;;;;;;5122952;27;20050;-90
2023/04/26 01:47:18;;;;;;;0.38;0.28;;;2.60;99.90;;;;;;5136421;27;20039;-90
2023/04/26 01:50:01;;;;;;;;;;;;;;;;;;;;;
2023/04/26 01:52:50;;;;;;;0.00;0.00;;;2.70;99.90;;;;;;5132088;27;20561;-90
2023/04/26 01:55:21;;;;;;;0.20;0.13;;;2.70;99.90;;;;;;5131028;27;20041;-91
2023/04/26 01:57:55;;;;;;;0.05;0.05;;;2.70;99.90;;;;;;5131278;27;20074;-90
2023/04/26 02:00:30;;;;;;;0.63;0.20;;;2.60;99.90;;;;;;5135674;27;20091;-90
2023/04/26 02:03:04;;;;;;;0.00;0.00;;;2.40;99.90;;;;;;5136796;27;20496;-90
2023/04/26 02:05:30;;;;;;;0.22;0.10;;;2.60;99.90;;;;;;5130196;27;20523;-90
2023/04/26 02:08:03;;;;;;;0.20;0.20;;;2.50;99.90;;;;;;5135858;27;20092;-90
2023/04/26 02:10:38;;;;;;;0.57;0.22;;;2.60;99.90;;;;;;5147068;27;20043;-90
2023/04/26 02:13:12;;;;;;;0.38;0.22;;;2.30;99.90;;;;;;5136660;27;20077;-90
2023/04/26 02:15:48;;;;;;;0.28;0.20;;;2.60;99.90;;;;;;5135776;27;20043;-91
2023/04/26 02:18:14;;;;;;;0.32;0.03;;;2.90;99.90;;;;;;5136422;27;20388;-90
2023/04/26 02:20:45;;;;;;;0.22;0.22;;;2.80;99.90;;;;;;5153147;27;20034;-91
2023/04/26 02:23:23;;;;;;;0.20;0.20;;;3.60;99.90;;;;;;5143826;27;20040;-90
2023/04/26 02:28:45;;;;;;;;;;;;;;;;;;;;;
2023/04/26 02:31:11;;;;;;;0.17;0.10;;;2.70;99.90;;;;;;5146873;27;20096;-90
2023/04/26 02:33:39;;;;;;;1.87;0.13;;;2.60;99.90;;;;;;5131569;27;20441;-93
2023/04/26 02:36:15;;;;;;;0.30;0.17;;;2.70;99.90;;;;;;5118562;27;20110;-90
2023/04/26 02:38:56;;;;;;;;;;;;;;;;;;;;;
2023/04/26 02:41:32;;;;;;;0.00;0.00;;;1.50;99.90;;;;;;5119701;27;20047;-91
2023/04/26 02:44:21;;;;;;;0.08;0.08;;;2.50;99.90;;;;;;5153108;27;20103;-91
2023/04/26 02:46:57;;;;;;;0.10;0.05;;;2.70;99.90;;;;;;5135341;27;20038;-92
2023/04/26 02:49:28;;;;;;;0.52;0.30;;;2.70;99.90;;;;;;5132703;28;20047;-90
2023/04/26 02:52:01;;;;;;;0.47;0.28;;;3.50;99.90;;;;;;5109590;27;20130;-90
2023/04/26 02:54:30;;;;;;;0.00;0.00;;;1.40;99.90;;;;;;5130661;27;20129;-90
2023/04/26 02:56:58;;;;;;;0.30;0.10;;;2.70;99.90;;;;;;5136447;27;20058;-90
2023/04/26 02:59:42;;;;;;;;;;;;;;;;;;;;;
2023/04/26 03:02:10;;;;;;;0.40;0.40;;;2.50;99.90;;;;;;5126188;27;20121;-90
2023/04/26 03:04:45;;;;;;;0.98;0.15;;;2.60;99.90;;;;;;5120907;27;20086;-90
2023/04/26 03:07:33;;;;;;;0.10;0.10;;;2.50;99.90;;;;;;5154235;27;20046;-90
2023/04/26 03:10:01;;;;;;;;;;;2.40;99.90;;;;;;5125430;27;20051;-91
2023/04/26 03:12:38;;;;;;;0.00;0.00;;;2.60;99.90;;;;;;5138146;27;20026;-90
2023/04/26 03:15:12;;;;;;;0.00;0.00;;;2.60;99.90;;;;;;5121975;27;20051;-90
2023/04/26 03:17:43;;;;;;;0.00;0.00;;;2.40;99.90;;;;;;5139373;27;20038;-90
2023/04/26 03:20:14;;;;;;;0.30;0.15;;;2.40;99.90;;;;;;5139691;27;20043;-90
2023/04/26 03:22:53;;;;;;;0.00;0.00;;;2.50;99.90;;;;;;5139182;27;20043;-90
2023/04/26 03:25:31;;;;;;;0.00;0.00;;;2.50;99.90;;;;;;5122278;27;20044;-90
2023/04/26 03:28:02;;;;;;;0.35;0.17;;;2.50;99.90;;;;;;5109027;27;20547;-90
2023/04/26 03:30:33;;;;;;;0.00;0.00;;;2.60;99.90;;;;;;5143214;27;20038;-91
2023/04/26 03:33:21;;;;;;;0.10;0.10;;;2.50;99.90;;;;;;5117944;27;20092;-90
2023/04/26 03:35:49;;;;;;;;;;;2.40;99.90;;;;;;5153162;27;20042;-90
2023/04/26 03:38:26;;;;;;;;;;;;;;;;;;;;;
2023/04/26 03:40:58;;;;;;;0.17;0.17;;;2.50;99.90;;;;;;5160212;27;20034;-90
2023/04/26 03:43:32;;;;;;;0.17;0.17;;;2.50;99.90;;;;;;5152190;27;20087;-90
2023/04/26 03:46:02;;;;;;;0.25;0.25;;;1.70;99.90;;;;;;5164976;27;20071;-90
2023/04/26 03:48:36;;;;;;;2.65;0.63;;;2.30;99.90;;;;;;5147117;27;20061;-91
2023/04/26 03:51:10;;;;;;;0.00;0.00;;;2.40;99.90;;;;;;5150500;27;20042;-90
2023/04/26 03:53:41;;;;;;;0.00;0.00;;;2.40;99.90;;;;;;5132714;27;20049;-90
2023/04/26 03:59:03;;;;;;;0.00;0.00;;;2.40;99.90;;;;;;5158102;27;20054;-90
2023/04/26 04:01:51;;;;;;;0.00;0.00;;;2.40;99.90;;;;;;5128354;27;20111;-90
2023/04/26 04:04:21;;;;;;;0.17;0.17;;;2.40;99.90;;;;;;5121637;27;20122;-92
2023/04/26 04:06:50;;;;;;;0.43;0.13;;;2.50;99.90;;;;;;5140829;27;20133;-92
2023/04/26 04:09:22;;;;;;;0.00;0.00;;;2.50;99.90;;;;;;5158766;27;20094;-91
2023/04/26 04:11:53;;;;;;;0.00;0.00;;;2.50;99.90;;;;;;5141944;27;20076;-91
2023/04/26 04:14:27;;;;;;;0.25;0.25;;;2.50;99.90;;;;;;5125746;27;20042;-90
2023/04/26 04:16:58;;;;;;;0.10;0.10;;;2.50;99.90;;;;;;5127572;27;20042;-91
2023/04/26 04:19:27;;;;;;;0.20;0.03;;;2.70;99.90;;;;;;5141553;27;20055;-90
2023/04/26 04:21:58;;;;;;;1.25;0.10;;;2.70;99.90;;;;;;5158042;27;20042;-91
2023/04/26 04:24:40;;;;;;;0.10;0.10;;;2.60;99.90;;;;;;5141343;27;20090;-91
2023/04/26 04:27:15;;;;;;;0.20;0.20;;;2.70;99.90;;;;;;5148351;27;20047;-90
2023/04/26 04:29:55;;;;;;;0.10;0.10;;;2.60;99.90;;;;;;5098272;27;20042;-90
2023/04/26 04:32:38;;;;;;;;;;;;;;;;;;;;;
2023/04/26 04:35:09;;;;;;;0.38;0.05;;;2.80;99.90;;;;;;5149938;27;20377;-91
2023/04/26 04:37:43;;;;;;;0.68;0.10;;;2.60;99.90;;;;;;5119154;27;20038;-90
2023/04/26 04:40:20;;;;;;;0.00;0.00;;;2.70;99.90;;;;;;5139974;27;20042;-90
2023/04/26 04:42:56;;;;;;;;;;;2.50;99.90;;;;;;5127490;27;20488;-90
2023/04/26 04:45:29;;;;;;;0.00;0.00;;;2.60;99.90;;;;;;5149964;27;20005;-91
2023/04/26 04:48:20;;;;;;;;;;;;;;;;;;;;;
2023/04/26 04:50:51;;;;;;;0.20;0.20;;;2.60;99.90;;;;;;5142859;27;20042;-91
2023/04/26 04:53:17;;;;;;;0.10;0.10;;;2.50;99.90;;;;;;5140293;27;20400;-90
2023/04/26 04:56:01;;;;;;;0.10;0.10;;;2.60;99.90;;;;;;5140565;27;20131;-90
2023/04/26 04:58:52;;;;;;;0.00;0.00;;;2.60;99.90;;;;;;5132839;27;20042;-91
2023/04/26 05:01:21;;;;;;;0.28;0.28;;;2.70;99.90;;;;;;5101656;27;20063;-91
2023/04/26 05:03:50;;;;;;;0.15;0.15;;;2.70;99.90;;;;;;5099445;27;20045;-92
2023/04/26 05:06:28;;;;;;;;;;;;;;;;;;;;;
2023/04/26 05:09:31;;;;;;;0.10;0.00;;;2.70;99.90;;;;;;5095663;27;20057;-94
2023/04/26 05:12:04;;;;;;;0.28;0.20;;;2.80;99.90;;;;;;5116515;27;20039;-94
2023/04/26 05:14:54;;;;;;;0.22;0.15;;;2.90;99.90;;;;;;5099118;27;20126;-91
2023/04/26 05:17:22;;;;;;;0.30;0.13;;;3.00;99.90;;;;;;5098759;27;20381;-91
2023/04/26 05:19:48;;;;;;;0.50;0.10;;;2.90;99.90;;;;;;5105538;27;20038;-83
2023/04/26 05:22:17;;;;;;;1.03;0.27;;;3.00;99.90;;;;;;5106524;27;20053;-85
2023/04/26 05:24:45;;;;;;;0.00;0.00;;;3.00;99.90;;;;;;5136773;27;20053;-85
2023/04/26 05:27:13;;;;;;;0.15;0.05;;;3.00;99.90;;;;;;5135671;27;20046;-85
2023/04/26 05:29:42;;;;;;;1.75;0.30;;;2.90;99.90;;;;;;5136643;27;20046;-85
2023/04/26 05:32:11;;;;;;;0.47;0.20;;;3.00;99.90;;;;;;5103175;27;20039;-85
2023/04/26 05:34:39;;;;;;;0.40;0.20;;;3.10;99.90;;;;;;5116081;27;20047;-85
2023/04/26 05:37:07;;;;;;;0.03;0.03;;;2.90;99.90;;;;;;5115757;27;20042;-86
2023/04/26 05:39:33;;;;;;;0.55;0.10;;;3.00;99.90;;;;;;5138734;27;20457;-82
2023/04/26 05:42:00;;;;;;;0.20;0.20;;;3.10;99.90;;;;;;5123144;27;20042;-93
2023/04/26 05:44:28;;;;;;;0.43;0.20;;;3.00;99.90;;;;;;5122031;27;20038;-87
2023/04/26 05:46:56;;;;;;;0.47;0.20;;;3.00;99.90;;;;;;5126825;27;20045;-87
2023/04/26 05:49:22;;;;;;;0.35;0.35;;;3.30;99.90;;;;;;5139201;27;20789;-86
2023/04/26 05:51:48;;;;;;;0.10;0.10;;;3.70;99.90;;;;;;5156657;27;20042;-88
2023/04/26 05:54:13;;;;;;;0.50;0.50;;;4.20;99.90;;;;;;5132671;27;20043;-86
2023/04/26 05:56:39;;;;;;;0.10;0.10;;;4.70;99.90;;;;;;5117759;27;20065;-87
2023/04/26 05:59:18;;;;;;;;;;;;;;;;;;;;;
2023/04/26 06:01:44;;;;;;;1.27;0.10;;;3.90;99.90;;;;;;5140616;27;20050;-87
2023/04/26 06:04:12;;;;;;;0.50;0.50;;;4.70;99.90;;;;;;5129877;27;20047;-85
2023/04/26 06:06:38;;;;;;;0.30;0.30;;;5.00;99.90;;;;;;5118511;27;20108;-87
2023/04/26 06:09:04;;;;;;;0.73;0.47;;;5.30;99.90;;;;;;5140732;27;20046;-92
2023/04/26 06:11:30;;;;;;;0.40;0.20;;;5.70;99.90;;;;;;5149054;27;20042;-86
2023/04/26 06:13:58;;;;;;;0.40;0.40;;;6.00;99.90;;;;;;5130970;27;20080;-89
2023/04/26 06:16:24;;;;;;;0.40;0.20;;;6.30;99.90;;;;;;5133517;27;20617;-87
2023/04/26 06:18:52;;;;;;;0.67;0.20;;;6.50;99.90;;;;;;5128661;27;20038;-87
2023/04/26 06:21:18;;;;;;;0.20;0.20;;;5.80;99.90;;;;;;5110608;27;20042;-86
2023/04/26 06:23:47;;;;;;;0.73;0.20;;;6.90;99.90;;;;;;5110111;27;20058;-87
2023/04/26 06:26:16;;;;;;;1.50;0.30;;;7.00;99.90;;;;;;5129171;27;20084;-87
2023/04/26 06:28:44;;;;;;;0.30;0.30;;;5.90;99.90;;;;;;5132377;27;20499;-89
2023/04/26 06:31:10;;;;;;;0.10;0.10;;;6.70;99.90;;;;;;5133951;27;20065;-88
2023/04/26 06:33:36;;;;;;;0.10;0.10;;;6.60;99.90;;;;;;5138101;27;20050;-87
2023/04/26 06:36:02;;;;;;;0.10;0.10;;;5.40;99.90;;;;;;5137736;27;20403;-87
2023/04/26 06:38:31;;;;;;;0.10;0.10;;;6.10;99.90;;;;;;5118315;27;20080;-86
2023/04/26 06:41:03;;;;;;;0.55;0.32;;;6.20;99.90;;;;;;5141027;27;20400;-89
2023/04/26 06:43:29;;;;;;;0.73;0.08;;;6.00;99.90;;;;;;5115851;27;20042;-87
2023/04/26 06:45:58;;;;;;;0.00;0.00;;;5.90;99.90;;;;;;5151908;27;20041;-86
2023/04/26 06:48:43;;;;;;;;;;;;;;;;;;;;;
2023/04/26 06:51:11;;;;;;;0.20;0.20;;;5.10;99.90;;;;;;5136933;27;20042;-89
2023/04/26 06:53:47;;;;;;;0.00;0.00;;;5.80;99.90;;;;;;5143586;27;20042;-90
2023/04/26 06:56:29;;;;;;;0.00;0.00;;;5.80;99.90;;;;;;5138734;27;20073;-93
2023/04/26 06:59:02;;;;;;;0.00;0.00;;;5.90;99.90;;;;;;5144598;27;20133;-93
2023/04/26 07:01:37;;;;;;;0.22;0.10;;;5.90;99.90;;;;;;5124968;27;20043;-94
2023/04/26 07:04:06;;;;;;;0.20;0.20;;;5.80;99.90;;;;;;5121413;27;20048;-94
2023/04/26 07:06:40;;;;;;;0.05;0.05;;;5.90;99.90;;;;;;5122264;27;20034;-93
2023/04/26 07:09:08;;;;;;;0.00;0.00;;;6.10;99.90;;;;;;5139267;27;20043;-94
2023/04/26 07:11:42;;;;;;;0.20;0.20;;;5.60;99.90;;;;;;5121914;27;20105;-93
2023/04/26 07:14:13;;;;;;;0.50;0.50;;;6.20;99.90;;;;;;5122315;27;20038;-94
2023/04/26 07:16:44;;;;;;;0.03;0.00;;;6.30;99.90;;;;;;5117440;27;20043;-94
2023/04/26 07:19:18;;;;;;;0.13;0.10;;;6.60;99.90;;;;;;5101672;27;20040;-93
2023/04/26 07:21:49;;;;;;;0.55;0.10;;;6.70;99.90;;;;;;5119037;27;20039;-94
2023/04/26 07:24:18;;;;;;;0.10;0.10;;;7.20;99.90;;;;;;5118296;27;20058;-92
2023/04/26 07:26:56;;;;;;;0.30;0.28;;;7.40;99.90;;;;;;5101817;27;20043;-94
2023/04/26 07:29:34;;;;;;;0.10;0.10;;;7.70;99.90;;;;;;5101013;27;20039;-94
2023/04/26 07:32:22;;;;;;;0.60;0.13;;;7.90;99.90;;;;;;5101474;27;20051;-95
2023/04/26 07:34:56;;;;;;;0.52;0.20;;;8.00;99.90;;;;;;5101560;27;20051;-95
2023/04/26 07:37:33;;;;;;;0.30;0.20;;;8.40;99.90;;;;;;5114311;27;20116;-95
2023/04/26 07:40:02;;;;;;;0.10;0.10;;;8.80;99.90;;;;;;5089485;27;20043;-95
2023/04/26 07:42:30;;;;;;;0.40;0.30;;;9.20;99.90;;;;;;5137652;27;20152;-94
2023/04/26 07:44:59;;;;;;;0.10;0.10;;;9.40;99.90;;;;;;5138326;27;20041;-94
2023/04/26 07:47:30;;;;;;;0.05;0.05;;;9.80;99.90;;;;;;5103613;27;20051;-92
2023/04/26 07:50:03;;;;;;;0.20;0.20;;;10.20;99.90;;;;;;5104674;27;20400;-93
2023/04/26 07:52:29;;;;;;;0.20;0.20;;;10.00;99.90;;;;;;5120213;27;20396;-95
2023/04/26 07:54:57;;;;;;;0.10;0.10;;;9.90;99.90;;;;;;5138399;27;20106;-95
2023/04/26 07:57:23;;;;;;;0.25;0.20;;;9.80;99.90;;;;;;5104536;27;20035;-94
2023/04/26 07:59:52;;;;;;;0.10;0.10;;;9.80;99.90;;;;;;5104242;27;20069;-95
2023/04/26 08:02:18;;;;;;;0.13;0.13;;;9.80;99.90;;;;;;5102001;27;20043;-91
2023/04/26 08:04:54;;;;;;;0.10;0.10;;;9.90;99.90;;;;;;5121092;27;20051;-94
2023/04/26 08:07:20;;;;;;;0.20;0.17;;;10.00;99.90;;;;;;5121576;27;20054;-91
2023/04/26 08:09:47;;;;;;;0.15;0.15;;;9.90;99.90;;;;;;5104306;27;20054;-95
2023/04/26 08:12:13;;;;;;;0.30;0.30;;;9.80;99.90;;;;;;5120763;27;20095;-95
2023/04/26 08:14:39;;;;;;;0.28;0.13;;;9.80;99.90;;;;;;5120872;27;20055;-94
2023/04/26 08:17:08;;;;;;;0.00;0.00;;;9.80;99.90;;;;;;5120898;27;20126;-94
2023/04/26 08:19:43;;;;;;;0.32;0.20;;;9.70;99.90;;;;;;5120779;27;20045;-95
2023/04/26 08:22:09;;;;;;;0.00;0.00;;;10.10;99.90;;;;;;5122608;27;20485;-95
2023/04/26 08:24:35;;;;;;;0.20;0.20;;;9.90;99.90;;;;;;5120755;27;20051;-94
2023/04/26 08:27:01;;;;;;;0.22;0.20;;;10.00;99.90;;;;;;5121135;27;20129;-94
2023/04/26 08:29:32;;;;;;;0.10;0.10;;;10.10;99.90;;;;;;5137633;27;20070;-95
2023/04/26 08:32:01;;;;;;;0.10;0.10;;;10.20;99.90;;;;;;5122003;27;20082;-95
2023/04/26 08:34:35;;;;;;;0.50;0.20;;;10.40;99.90;;;;;;5117695;27;20042;-94
2023/04/26 08:37:04;;;;;;;1.65;0.28;;;10.60;99.90;;;;;;5120758;27;20042;-95
2023/04/26 08:39:35;;;;;;;0.40;0.28;;;10.60;99.90;;;;;;5121102;27;20042;-95
2023/04/26 08:42:11;;;;;;;2.28;0.40;;;10.60;99.90;;;;;;5103819;27;20075;-94
2023/04/26 08:44:43;;;;;;;0.22;0.22;;;10.60;99.90;;;;;;5138436;27;20046;-95
2023/04/26 08:47:37;;;;;;;;;;;;;;;;;;;;;
2023/04/26 08:50:09;;;;;;;0.38;0.38;;;10.50;99.90;;;;;;5138575;27;20054;-95
2023/04/26 08:52:40;;;;;;;0.10;0.10;;;10.60;99.90;;;;;;5139537;27;20388;-95
2023/04/26 08:55:08;;;;;;;0.10;0.10;;;10.70;99.90;;;;;;5126265;27;20050;-95
2023/04/26 08:57:47;;;;;;;0.10;0.10;;;10.60;99.90;;;;;;5132090;27;20038;-94
2023/04/26 09:00:14;;;;;;;0.25;0.25;;;10.40;99.90;;;;;;5132478;27;20404;-95
2023/04/26 09:02:44;;;;;;;1.35;0.68;;;11.00;99.90;;;;;;5122163;27;20046;-95
2023/04/26 09:05:16;;;;;;;0.10;0.10;;;11.00;99.90;;;;;;5129257;27;20043;-95
2023/04/26 09:07:46;;;;;;;0.10;0.10;;;10.90;99.90;;;;;;5121895;27;20442;-95
2023/04/26 09:10:18;;;;;;;0.20;0.20;;;10.90;99.90;;;;;;5138252;27;20047;-94
2023/04/26 09:12:44;;;;;;;0.50;0.20;;;10.90;99.90;;;;;;5120439;27;20046;-95
2023/04/26 09:15:10;;;;;;;0.45;0.43;;;11.00;99.90;;;;;;5137488;27;20548;-95
2023/04/26 09:17:42;;;;;;;0.13;0.13;;;11.30;99.90;;;;;;5119355;27;20081;-95
2023/04/26 09:20:26;;;;;;;0.20;0.20;;;11.60;99.90;;;;;;5119941;27;20357;-95
2023/04/26 09:23:07;;;;;;;0.30;0.25;;;10.80;99.90;;;;;;5137048;27;20046;-94
2023/04/26 09:25:33;;;;;;;0.30;0.30;;;11.60;99.90;;;;;;5119116;27;20039;-95
2023/04/26 09:28:25;;;;;;;0.40;0.30;;;11.50;99.90;;;;;;5136746;27;20191;-95
2023/04/26 09:30:53;;;;;;;0.43;0.38;;;11.40;99.90;;;;;;5122440;27;20635;-95
2023/04/26 09:33:56;;;;;;;0.00;0.00;;;11.00;99.90;;;;;;5134853;27;20047;-95
2023/04/26 09:36:25;;;;;;;0.43;0.13;;;10.70;99.90;;;;;;5118116;27;20046;-95
2023/04/26 09:38:51;;;;;;;0.30;0.20;;;10.50;99.90;;;;;;5118964;27;20142;-95
2023/04/26 09:41:19;;;;;;;1.00;0.45;;;10.30;99.90;;;;;;5102287;27;20100;-95
2023/04/26 09:43:47;;;;;;;0.20;0.20;;;10.10;99.90;;;;;;5118808;27;20392;-94
2023/04/26 09:46:24;;;;;;;0.00;0.00;;;9.80;99.90;;;;;;5119899;27;20187;-95
2023/04/26 09:49:00;;;;;;;;;;;9.40;99.90;;;;;;5119307;27;20130;-94
2023/04/26 09:51:27;;;;;;;0.30;0.30;;;9.50;99.90;;;;;;5119312;27;20040;-95
2023/04/26 09:53:53;;;;;;;0.32;0.28;;;8.90;99.90;;;;;;5136214;27;20120;-95
2023/04/26 09:56:20;;;;;;;0.20;0.20;;;8.80;99.90;;;;;;5137068;27;20134;-96
2023/04/26 09:58:46;;;;;;;0.25;0.22;;;8.60;99.90;;;;;;5136388;27;20054;-95
2023/04/26 10:01:17;;;;;;;0.20;0.20;;;8.40;99.90;;;;;;5120452;27;20054;-94
2023/04/26 10:03:43;;;;;;;1.33;0.45;;;8.50;99.90;;;;;;5118107;27;20284;-95
2023/04/26 10:06:09;;;;;;;0.30;0.30;;;8.40;99.90;;;;;;5116682;27;20074;-95
2023/04/26 10:08:35;;;;;;;0.35;0.10;;;8.50;99.90;;;;;;5118856;27;20050;-89
2023/04/26 10:11:06;;;;;;;1.98;0.25;;;8.50;99.90;;;;;;5136243;27;20078;-94
2023/04/26 10:13:32;;;;;;;0.28;0.28;;;8.60;99.90;;;;;;5138776;27;20047;-94
2023/04/26 10:16:01;;;;;;;0.50;0.43;;;8.80;99.90;;;;;;5123479;27;20048;-94
2023/04/26 10:18:30;;;;;;;0.20;0.20;;;8.80;99.90;;;;;;5140330;27;20039;-94
2023/04/26 10:21:05;;;;;;;0.30;0.30;;;8.90;99.90;;;;;;5122705;27;20640;-94
2023/04/26 10:23:32;;;;;;;0.30;0.30;;;9.00;99.90;;;;;;5123636;27;20545;-94
2023/04/26 10:25:57;;;;;;;;;;;9.30;99.90;;;;;;5140420;27;20118;-95
2023/04/26 10:28:39;;;;;;;0.28;0.28;;;9.60;99.90;;;;;;5123556;27;19919;-95
2023/04/26 10:31:06;;;;;;;1.75;0.30;;;9.60;99.90;;;;;;5123270;27;20082;-96
2023/04/26 10:33:37;;;;;;;0.45;0.45;;;9.00;99.90;;;;;;5123814;27;20042;-95
2023/04/26 10:36:13;;;;;;;0.40;0.40;;;9.70;99.90;;;;;;5154759;27;20043;-94
2023/04/26 10:39:05;;;;;;;0.43;0.20;;;9.70;99.90;;;;;;5139852;27;20053;-89
2023/04/26 10:41:34;;;;;;;0.45;0.38;;;9.60;99.90;;;;;;5108000;27;20050;-93
2023/04/26 10:44:46;;;;;;;0.00;0.00;;;9.50;99.90;;;;;;5139430;27;20082;-96
2023/04/26 10:47:36;;;;;;;0.50;0.40;;;9.60;99.90;;;;;;5135429;27;20056;-94
2023/04/26 10:50:03;;;;;;;0.52;0.52;;;9.70;99.90;;;;;;5139428;27;20058;-95
2023/04/26 10:52:29;;;;;;;0.10;0.10;;;9.70;99.90;;;;;;5122569;27;20143;-94
2023/04/26 10:54:58;;;;;;;0.10;0.10;;;9.70;99.90;;;;;;5122390;27;20051;-94
2023/04/26 10:57:49;;;;;;;0.10;0.10;;;9.70;99.90;;;;;;5122451;27;20039;-95
2023/04/26 11:00:19;;;;;;;0.10;0.05;;;9.70;99.90;;;;;;5139845;27;20050;-95
2023/04/26 11:02:55;;;;;;;0.20;0.13;;;9.00;99.90;;;;;;5121673;27;20095;-96
2023/04/26 11:05:52;;;;;;;1.13;0.20;;;9.80;99.90;;;;;;5121288;27;20118;-94
2023/04/26 11:08:30;;;;;;;0.20;0.20;;;10.00;99.90;;;;;;5121667;27;20039;-94
2023/04/26 11:11:02;;;;;;;0.00;0.00;;;9.90;99.90;;;;;;5139158;27;20043;-94
2023/04/26 11:13:32;;;;;;;0.43;0.30;;;8.90;99.90;;;;;;5122520;27;20043;-93
2023/04/26 11:16:06;;;;;;;0.08;0.08;;;9.90;99.90;;;;;;5122035;27;20042;-95
2023/04/26 11:18:32;;;;;;;0.52;0.20;;;10.00;99.90;;;;;;5139230;27;20134;-95
2023/04/26 11:20:59;;;;;;;0.73;0.40;;;10.00;99.90;;;;;;5121792;27;20049;-95
2023/04/26 11:23:27;;;;;;;0.20;0.20;;;10.10;99.90;;;;;;5122270;27;20057;-95
2023/04/26 11:25:56;;;;;;;0.05;0.05;;;10.20;99.90;;;;;;5120015;27;20058;-95
2023/04/26 11:28:22;;;;;;;0.17;0.15;;;10.30;99.90;;;;;;5121617;27;20047;-94
2023/04/26 11:30:49;;;;;;;0.10;0.10;;;10.40;99.90;;;;;;5138551;27;20078;-94
2023/04/26 11:33:21;;;;;;;0.10;0.10;;;10.50;99.90;;;;;;5121284;27;20070;-94
2023/04/26 11:35:46;;;;;;;1.85;0.52;;;10.50;99.90;;;;;;5119991;27;20442;-92
2023/04/26 11:38:13;;;;;;;0.15;0.10;;;10.50;99.90;;;;;;5121832;27;20043;-95
2023/04/26 11:40:41;;;;;;;0.10;0.10;;;10.60;99.90;;;;;;5103959;27;20107;-95
2023/04/26 11:43:10;;;;;;;0.10;0.10;;;10.60;99.90;;;;;;5121153;27;20047;-95
2023/04/26 11:45:37;;;;;;;0.32;0.32;;;10.90;99.90;;;;;;5121550;27;20134;-95
2023/04/26 11:48:09;;;;;;;0.43;0.43;;;10.90;99.90;;;;;;5121338;27;20046;-95
2023/04/26 11:50:36;;;;;;;0.35;0.20;;;11.30;99.90;;;;;;5121658;27;20050;-94
2023/04/26 11:53:04;;;;;;;2.28;0.65;;;11.60;99.90;;;;;;5121013;27;20107;-94
2023/04/26 11:55:33;;;;;;;0.68;0.32;;;11.50;99.90;;;;;;5138507;27;20034;-95
2023/04/26 11:58:10;;;;;;;0.20;0.20;;;11.30;99.90;;;;;;5120588;27;20094;-96
2023/04/26 12:00:36;;;;;;;0.15;0.15;;;11.00;99.90;;;;;;5120807;27;20101;-95
2023/04/26 12:03:09;;;;;;;0.63;0.40;;;10.80;99.90;;;;;;5122045;27;20087;-95
2023/04/26 12:05:36;;;;;;;0.10;0.10;;;10.30;99.90;;;;;;5122414;27;20102;-95
2023/04/26 12:08:04;;;;;;;;;;;9.90;99.90;;;;;;5138107;27;20462;-96
2023/04/26 12:10:33;;;;;;;0.28;0.28;;;9.80;99.90;;;;;;5122665;27;20297;-95
2023/04/26 12:13:02;;;;;;;0.22;0.22;;;9.50;99.90;;;;;;5139235;27;20562;-96
2023/04/26 12:15:32;;;;;;;0.00;0.00;;;9.50;99.90;;;;;;5123196;27;20051;-96
2023/04/26 12:18:11;;;;;;;0.10;0.10;;;9.40;99.90;;;;;;5137894;27;20035;-96
2023/04/26 12:20:38;;;;;;;0.45;0.38;;;9.30;99.90;;;;;;5104481;27;20047;-96
2023/04/26 12:23:09;;;;;;;0.20;0.20;;;9.30;99.90;;;;;;5138109;27;20038;-95
2023/04/26 12:25:45;;;;;;;0.20;0.17;;;9.10;99.90;;;;;;5140077;27;20453;-95
2023/04/26 12:28:12;;;;;;;0.55;0.38;;;9.10;99.90;;;;;;5122912;27;20133;-95
2023/04/26 12:30:39;;;;;;;0.30;0.30;;;9.30;99.90;;;;;;5120883;27;20049;-95
2023/04/26 12:33:05;;;;;;;;;;;8.50;99.90;;;;;;5120604;27;20042;-95
2023/04/26 12:35:31;;;;;;;0.22;0.20;;;9.20;99.90;;;;;;5139117;27;19919;-95
2023/04/26 12:37:59;;;;;;;0.32;0.20;;;9.30;99.90;;;;;;5138229;27;20068;-95
2023/04/26 12:40:28;;;;;;;0.10;0.10;;;9.30;99.90;;;;;;5119776;27;20051;-95
2023/04/26 12:42:57;;;;;;;0.20;0.20;;;9.40;99.90;;;;;;5120364;27;20176;-90
2023/04/26 12:45:25;;;;;;;0.30;0.30;;;9.40;99.90;;;;;;5104019;27;20046;-94
2023/04/26 12:47:53;;;;;;;0.00;0.00;;;9.40;99.90;;;;;;5120479;27;20042;-95
2023/04/26 12:50:19;;;;;;;0.15;0.15;;;9.40;99.90;;;;;;5120536;27;20049;-95
2023/04/26 12:52:48;;;;;;;0.20;0.20;;;9.50;99.90;;;;;;5120823;27;20050;-95
2023/04/26 12:55:16;;;;;;;0.50;0.50;;;8.80;99.90;;;;;;5119581;27;20078;-94
2023/04/26 12:57:44;;;;;;;0.32;0.30;;;9.40;99.90;;;;;;5138395;27;20046;-95
2023/04/26 13:00:20;;;;;;;0.63;0.63;;;9.30;99.90;;;;;;5120836;27;20058;-95
2023/04/26 13:02:46;;;;;;;0.30;0.30;;;9.20;99.90;;;;;;5120208;27;20097;-95
2023/04/26 13:05:12;;;;;;;0.33;0.33;;;9.20;99.90;;;;;;5119449;27;20047;-95
2023/04/26 13:07:41;;;;;;;0.90;0.20;;;9.10;99.90;;;;;;5119561;27;20038;-95
2023/04/26 13:10:09;;;;;;;0.10;0.08;;;9.00;99.90;;;;;;5118259;27;20777;-92
2023/04/26 13:12:35;;;;;;;0.13;0.13;;;9.00;99.90;;;;;;5120226;27;20508;-95
2023/04/26 13:15:06;;;;;;;0.68;0.22;;;8.90;99.90;;;;;;5119336;27;20103;-95
2023/04/26 13:17:36;;;;;;;0.40;0.10;;;8.80;99.90;;;;;;5120084;27;20365;-96
2023/04/26 13:20:05;;;;;;;0.47;0.20;;;8.80;99.90;;;;;;5118785;27;20042;-94
2023/04/26 13:22:33;;;;;;;0.10;0.10;;;8.80;99.90;;;;;;5119148;27;20504;-94
2023/04/26 13:24:59;;;;;;;0.20;0.20;;;8.80;99.90;;;;;;5119072;27;20046;-90
2023/04/26 13:27:27;;;;;;;1.03;0.83;;;8.90;99.90;;;;;;5119669;27;20046;-94
2023/04/26 13:29:53;;;;;;;0.32;0.10;;;9.00;99.90;;;;;;5119627;27;20129;-95
2023/04/26 13:32:19;;;;;;;0.35;0.20;;;9.00;99.90;;;;;;5120365;27;20038;-95
2023/04/26 13:34:48;;;;;;;0.07;0.07;;;9.00;99.90;;;;;;5122803;27;20106;-94
2023/04/26 13:37:17;;;;;;;0.00;0.00;;;8.90;99.90;;;;;;5121207;27;20045;-94
2023/04/26 13:39:43;;;;;;;0.10;0.10;;;8.90;99.90;;;;;;5135293;27;20046;-94
2023/04/26 13:42:09;;;;;;;0.20;0.20;;;9.10;99.90;;;;;;5117350;27;20038;-94
2023/04/26 13:44:35;;;;;;;0.30;0.17;;;9.00;99.90;;;;;;5119169;27;20288;-94
2023/04/26 13:47:01;;;;;;;0.63;0.37;;;9.20;99.90;;;;;;5102442;27;20046;-90